Time;durP1;ratioP1;P1;durP2;ratioP2;P2;SDS_P1;SDS_P2;PMS_P1;PMS_P2;Temp;Humidity;BMP_temperature;BMP_pressure;BME280_temperature;BME280_humidity;BME280_pressure;Samples;Min_cycle;Max_cycle;Signal;HPM_P1;HPM_P2
2021/10/03 00:03:51;;;;;;;6.82;3.58;;;;;;;18.75;47.08;98534.63;10302997;28;20055;-67
2021/10/03 00:08:53;;;;;;;7.22;3.20;;;;;;;18.77;47.10;98519.38;10302276;28;20063;-67
2021/10/03 00:13:55;;;;;;;4.78;3.30;;;;;;;18.67;46.80;98526.75;10302640;28;20046;-67
2021/10/03 00:18:57;;;;;;;6.95;3.33;;;;;;;18.78;46.86;98525.50;10302069;28;20210;-67
2021/10/03 00:24:12;;;;;;;5.57;3.33;;;;;;;18.84;46.47;98536.22;10302406;28;20455;-67
2021/10/03 00:29:16;;;;;;;7.03;3.50;;;;;;;18.88;46.51;98541.97;10301025;28;20096;-68
2021/10/03 00:34:18;;;;;;;6.43;3.55;;;;;;;18.85;46.98;98534.41;10302688;28;20050;-67
2021/10/03 00:39:19;;;;;;;4.75;3.55;;;;;;;18.88;46.78;98510.19;10308788;28;20054;-67
2021/10/03 00:44:21;;;;;;;6.13;3.60;;;;;;;18.92;46.97;98522.91;10309074;28;20056;-67
2021/10/03 00:49:24;;;;;;;8.75;4.03;;;;;;;18.95;47.01;98514.59;10308840;28;20052;-67
2021/10/03 00:54:26;;;;;;;6.90;3.75;;;;;;;18.97;46.83;98511.78;10308084;28;20556;-67
2021/10/03 00:59:29;;;;;;;6.72;3.97;;;;;;;19.01;47.02;98502.47;10308062;28;20458;-67
2021/10/03 01:04:31;;;;;;;5.95;4.03;;;;;;;19.06;46.98;98484.22;10308464;28;20064;-67
2021/10/03 01:09:33;;;;;;;6.35;3.97;;;;;;;19.05;47.18;98499.31;10307632;28;20068;-67
2021/10/03 01:14:34;;;;;;;6.88;3.95;;;;;;;19.09;46.91;98491.81;10307589;28;20216;-67
2021/10/03 01:19:37;;;;;;;7.05;4.10;;;;;;;19.06;46.97;98502.78;10307660;28;20076;-68
2021/10/03 01:24:39;;;;;;;6.68;4.15;;;;;;;19.07;47.53;98497.31;10305925;28;20414;-67
2021/10/03 01:29:42;;;;;;;10.15;4.75;;;;;;;19.12;47.64;98513.47;10307009;28;20054;-67
2021/10/03 01:34:45;;;;;;;10.55;4.65;;;;;;;19.14;47.45;98514.13;10306610;28;20065;-67
2021/10/03 01:39:46;;;;;;;9.23;4.72;;;;;;;19.12;47.51;98532.03;10305201;28;20046;-67
2021/10/03 01:44:48;;;;;;;9.05;4.65;;;;;;;19.17;47.63;98511.13;10305304;28;20046;-67
2021/10/03 01:49:51;;;;;;;9.23;4.47;;;;;;;19.18;47.88;98517.22;10305118;28;20398;-67
2021/10/03 01:54:52;;;;;;;7.45;4.97;;;;;;;19.17;47.84;98511.13;10306521;28;20574;-67
2021/10/03 01:59:54;;;;;;;7.82;5.20;;;;;;;19.18;48.29;98512.75;10306144;28;20316;-67
2021/10/03 02:04:56;;;;;;;6.43;4.75;;;;;;;19.16;48.37;98508.63;10313619;28;20046;-67
2021/10/03 02:09:58;;;;;;;7.38;5.28;;;;;;;19.12;48.33;98513.47;10312789;28;20058;-67
2021/10/03 02:15:00;;;;;;;11.00;5.20;;;;;;;19.18;48.19;98507.47;10312837;28;20126;-67
2021/10/03 02:20:02;;;;;;;8.77;5.05;;;;;;;19.21;48.51;98501.81;10313262;28;20050;-67
2021/10/03 02:25:05;;;;;;;8.63;5.22;;;;;;;19.18;48.41;98488.06;10313116;28;20133;-67
2021/10/03 02:30:08;;;;;;;8.98;5.07;;;;;;;19.13;48.61;98483.34;10311973;28;20141;-67
2021/10/03 02:35:11;;;;;;;7.68;5.28;;;;;;;19.16;48.57;98475.00;10312850;28;20053;-67
2021/10/03 02:40:17;;;;;;;7.13;5.20;;;;;;;19.16;48.51;98466.22;10312027;28;20289;-67
2021/10/03 02:45:18;;;;;;;8.35;5.20;;;;;;;19.14;48.96;98468.25;10312393;28;20085;-67
2021/10/03 02:50:21;;;;;;;8.35;5.55;;;;;;;19.09;49.28;98455.56;10311738;28;20528;-67
2021/10/03 02:55:23;;;;;;;9.40;5.53;;;;;;;19.10;49.26;98462.50;10311900;28;20520;-67
2021/10/03 03:00:25;;;;;;;7.45;5.20;;;;;;;19.12;48.92;98460.47;10310707;28;20048;-67
2021/10/03 03:05:27;;;;;;;8.57;5.10;;;;;;;19.01;49.35;98442.31;10306993;28;20042;-68
2021/10/03 03:10:29;;;;;;;7.53;5.28;;;;;;;19.05;49.38;98434.91;10306135;28;20060;-67
2021/10/03 03:15:31;;;;;;;7.75;4.97;;;;;;;19.00;49.09;98427.44;10303824;28;20129;-67
2021/10/03 03:20:33;;;;;;;8.48;5.28;;;;;;;18.98;49.51;98423.31;10319180;28;20728;-67
2021/10/03 03:25:35;;;;;;;8.45;5.43;;;;;;;18.96;49.19;98418.22;10304240;28;20053;-67
2021/10/03 03:30:38;;;;;;;8.18;5.57;;;;;;;18.94;49.21;98422.03;10303240;28;20050;-68
2021/10/03 03:35:39;;;;;;;7.63;5.22;;;;;;;18.90;49.29;98431.34;10303394;28;20050;-67
2021/10/03 03:40:41;;;;;;;8.43;5.20;;;;;;;18.87;49.35;98424.59;10303396;28;20822;-67
2021/10/03 03:45:43;;;;;;;8.23;4.95;;;;;;;18.89;49.69;98419.13;10303709;28;20503;-67
2021/10/03 03:50:44;;;;;;;7.97;5.20;;;;;;;18.90;49.04;98418.94;10303516;28;20056;-67
2021/10/03 03:55:46;;;;;;;10.38;5.40;;;;;;;18.90;49.00;98412.81;10302568;28;20042;-67
2021/10/03 04:00:48;;;;;;;9.02;5.38;;;;;;;18.84;49.18;98417.00;10303567;28;20047;-67
2021/10/03 04:05:50;;;;;;;10.43;5.00;;;;;;;18.85;49.13;98410.69;10303013;28;20046;-67
2021/10/03 04:10:52;;;;;;;6.95;4.88;;;;;;;18.90;49.04;98396.91;10304059;28;20522;-67
2021/10/03 04:15:53;;;;;;;8.05;5.20;;;;;;;18.88;48.92;98404.22;10310349;28;20050;-67
2021/10/03 04:20:55;;;;;;;6.55;4.65;;;;;;;18.86;48.54;98395.63;10311276;28;20058;-67
2021/10/03 04:25:57;;;;;;;6.88;5.05;;;;;;;18.88;48.47;98404.22;10310492;28;20142;-67
2021/10/03 04:30:59;;;;;;;8.43;4.93;;;;;;;18.86;48.60;98388.53;10309580;28;20068;-67
2021/10/03 04:36:01;;;;;;;6.75;4.70;;;;;;;18.77;48.04;98402.84;10309539;28;20073;-67
2021/10/03 04:41:03;;;;;;;7.50;4.75;;;;;;;18.91;47.62;98386.13;10310223;28;20477;-67
2021/10/03 04:46:05;;;;;;;7.45;4.82;;;;;;;19.00;47.55;98389.53;10309491;28;20050;-67
2021/10/03 04:51:07;;;;;;;7.22;4.55;;;;;;;19.03;47.17;98381.25;10309121;28;20061;-67
2021/10/03 04:56:09;;;;;;;6.28;4.40;;;;;;;19.18;47.04;98379.41;10309072;28;20050;-67
2021/10/03 05:01:11;;;;;;;8.00;4.55;;;;;;;19.17;46.90;98383.09;10309491;28;20050;-66
2021/10/03 05:06:13;;;;;;;8.55;4.15;;;;;;;19.17;46.63;98378.63;10307200;28;20448;-67
2021/10/03 05:11:15;;;;;;;5.68;4.15;;;;;;;19.19;46.19;98373.94;10308961;28;20062;-67
2021/10/03 05:16:16;;;;;;;6.15;4.20;;;;;;;19.27;45.75;98379.16;10308197;28;20049;-67
2021/10/03 05:21:18;;;;;;;6.80;4.35;;;;;;;19.34;45.73;98384.53;10307914;28;20050;-67
2021/10/03 05:26:20;;;;;;;7.40;4.00;;;;;;;19.38;45.07;98393.75;10307830;28;20517;-66
2021/10/03 05:31:23;;;;;;;7.10;3.92;;;;;;;19.41;44.62;98382.78;10306801;28;20051;-67
2021/10/03 05:36:25;;;;;;;6.35;3.95;;;;;;;19.48;44.38;98393.47;10307516;28;20050;-68
2021/10/03 05:41:28;;;;;;;6.22;3.97;;;;;;;19.45;43.85;98381.41;10307500;28;20049;-67
2021/10/03 05:46:31;;;;;;;5.93;3.75;;;;;;;19.55;43.70;98389.06;10307504;28;20573;-67
2021/10/03 05:51:35;;;;;;;7.72;4.18;;;;;;;19.52;43.73;98387.63;10307364;28;20060;-67
2021/10/03 05:56:36;;;;;;;5.13;3.47;;;;;;;19.59;43.25;98387.69;10306127;28;20502;-67
2021/10/03 06:01:40;;;;;;;6.00;3.60;;;;;;;19.67;43.49;98392.88;10306998;28;20056;-67
2021/10/03 06:06:42;;;;;;;4.85;3.38;;;;;;;19.67;43.26;98399.03;10305571;28;20049;-67
2021/10/03 06:11:44;;;;;;;6.15;3.58;;;;;;;19.69;42.95;98401.47;10306326;28;20062;-67
2021/10/03 06:16:48;;;;;;;7.95;3.70;;;;;;;19.66;43.08;98415.13;10306309;28;20053;-67
2021/10/03 06:21:50;;;;;;;7.03;3.65;;;;;;;19.67;42.27;98416.75;10306786;28;20058;-67
2021/10/03 06:26:51;;;;;;;6.40;3.65;;;;;;;19.69;42.27;98401.47;10305817;28;20046;-67
2021/10/03 06:31:53;;;;;;;5.68;3.67;;;;;;;19.75;42.11;98409.53;10304830;28;20054;-67
2021/10/03 06:36:55;;;;;;;5.82;3.63;;;;;;;19.74;42.14;98412.38;10305625;28;20078;-67
2021/10/03 06:41:56;;;;;;;7.20;3.38;;;;;;;19.78;42.09;98411.81;10305258;28;20054;-67
2021/10/03 06:46:58;;;;;;;10.93;3.60;;;;;;;19.76;42.35;98420.97;10304965;28;20046;-67
2021/10/03 06:52:00;;;;;;;7.43;3.88;;;;;;;19.76;41.97;98426.25;10319219;28;20054;-68
2021/10/03 06:57:02;;;;;;;7.10;3.30;;;;;;;19.83;41.74;98437.78;10304845;28;20056;-68
2021/10/03 07:02:10;;;;;;;10.35;3.72;;;;;;;19.85;41.11;98427.81;10303884;28;20050;-67
2021/10/03 07:07:12;;;;;;;6.55;3.42;;;;;;;19.87;41.42;98447.84;10304340;28;20053;-67
2021/10/03 07:12:15;;;;;;;6.95;3.47;;;;;;;19.87;41.52;98442.53;10318942;28;20187;-68
2021/10/03 07:17:17;;;;;;;8.48;3.17;;;;;;;19.89;41.46;98437.88;10304885;28;20418;-67
2021/10/03 07:22:19;;;;;;;4.70;3.28;;;;;;;19.91;41.10;98445.69;10303915;28;20543;-67
2021/10/03 07:27:20;;;;;;;4.55;3.42;;;;;;;19.96;41.08;98443.25;10303538;28;20084;-67
2021/10/03 07:32:22;;;;;;;6.53;3.17;;;;;;;19.91;41.00;98449.13;10303063;28;20050;-68
2021/10/03 07:37:28;;;;;;;6.25;3.20;;;;;;;19.91;40.46;98445.69;10296613;28;20049;-68
2021/10/03 07:42:30;;;;;;;6.60;3.15;;;;;;;20.05;40.73;98448.25;10316281;28;20051;-67
2021/10/03 07:47:31;;;;;;;5.25;3.28;;;;;;;20.01;40.36;98462.91;10307732;28;20046;-68
2021/10/03 07:52:33;;;;;;;5.35;3.13;;;;;;;20.11;40.15;98466.09;10310304;28;20050;-67
2021/10/03 07:57:35;;;;;;;5.82;3.28;;;;;;;20.13;40.17;98450.00;10311337;28;20065;-67
2021/10/03 08:02:36;;;;;;;6.65;3.20;;;;;;;20.16;39.96;98457.56;10310304;28;20483;-67
2021/10/03 08:07:38;;;;;;;5.90;3.30;;;;;;;20.19;39.91;98473.16;10324480;28;20132;-68
2021/10/03 08:12:41;;;;;;;4.63;3.10;;;;;;;20.33;40.06;98477.59;10310629;28;20637;-67
2021/10/03 08:17:43;;;;;;;4.60;3.08;;;;;;;20.34;40.00;98467.78;10324645;28;20054;-68
2021/10/03 08:22:50;;;;;;;5.70;3.30;;;;;;;20.33;40.37;98477.59;10308162;28;20141;-67
2021/10/03 08:27:52;;;;;;;6.15;3.08;;;;;;;20.34;40.27;98470.44;10309895;28;20051;-67
2021/10/03 08:32:53;;;;;;;6.30;3.00;;;;;;;20.30;40.42;98480.59;10307895;28;20073;-67
2021/10/03 08:37:55;;;;;;;4.35;3.00;;;;;;;20.21;40.43;98474.56;10306193;28;20074;-67
2021/10/03 08:42:57;;;;;;;4.85;3.22;;;;;;;20.21;40.81;98484.41;10307189;28;20050;-67
2021/10/03 08:47:59;;;;;;;5.78;3.53;;;;;;;20.20;42.44;98499.50;10323500;28;20059;-67
2021/10/03 08:53:01;;;;;;;6.13;2.97;;;;;;;20.13;42.16;98503.88;10308210;28;20042;-67
2021/10/03 08:58:04;;;;;;;7.40;2.92;;;;;;;20.11;41.92;98513.88;10316197;28;20050;-77
2021/10/03 09:03:08;;;;;;;5.80;3.38;;;;;;;20.10;42.24;98501.63;10307547;28;20082;-77
2021/10/03 09:08:16;;;;;;;4.57;3.10;;;;;;;20.03;41.82;98511.31;10308164;28;20050;-77
2021/10/03 09:13:18;;;;;;;5.00;3.22;;;;;;;20.04;42.45;98505.03;10308676;28;20043;-78
2021/10/03 09:18:33;;;;;;;5.28;3.22;;;;;;;19.98;41.97;98507.59;10308046;28;20637;-77
2021/10/03 09:23:35;;;;;;;6.35;3.40;;;;;;;19.88;42.01;98523.81;10306182;28;20061;-78
2021/10/03 09:28:37;;;;;;;5.07;3.10;;;;;;;19.89;42.05;98517.47;10304056;28;20054;-78
2021/10/03 09:33:56;;;;;;;9.13;3.00;;;;;;;20.02;42.07;98520.31;10305685;28;20140;-78
2021/10/03 09:38:58;;;;;;;4.60;2.85;;;;;;;19.97;42.48;98524.53;10317849;28;20745;-78
2021/10/03 09:44:11;;;;;;;5.68;2.85;;;;;;;20.11;42.95;98534.31;10306890;28;20073;-78
2021/10/03 09:49:13;;;;;;;7.45;3.13;;;;;;;20.07;43.27;98541.78;10307249;28;20050;-78
2021/10/03 09:54:19;;;;;;;5.22;3.13;;;;;;;20.19;43.01;98536.84;10305929;28;20060;-78
2021/10/03 09:59:21;;;;;;;4.70;3.17;;;;;;;20.12;43.41;98541.25;10305257;28;20046;-77
2021/10/03 10:04:23;;;;;;;7.13;3.08;;;;;;;20.05;43.51;98535.06;10302957;28;20044;-78
2021/10/03 10:09:25;;;;;;;6.05;3.25;;;;;;;19.95;43.46;98537.16;10305038;28;20058;-77
2021/10/03 10:14:29;;;;;;;5.15;2.83;;;;;;;20.00;42.89;98524.97;10301503;28;20286;-78
2021/10/03 10:19:32;;;;;;;5.57;3.17;;;;;;;20.04;42.87;98517.47;10304250;28;20053;-77
2021/10/03 10:24:43;;;;;;;7.68;3.28;;;;;;;19.95;43.48;98516.75;10304311;28;20042;-78
2021/10/03 10:29:49;;;;;;;5.53;3.20;;;;;;;20.02;42.56;98527.44;10318862;28;20409;-78
2021/10/03 10:35:09;;;;;;;5.45;3.17;;;;;;;19.93;42.08;98520.59;10304587;28;20073;-78
2021/10/03 10:40:23;;;;;;;7.18;3.08;;;;;;;19.83;41.92;98522.69;10296265;28;20056;-78
2021/10/03 10:45:28;;;;;;;4.60;3.00;;;;;;;19.94;43.00;98508.97;10304602;28;20058;-77
2021/10/03 10:50:29;;;;;;;5.43;3.20;;;;;;;19.89;43.65;98511.34;10304192;28;20061;-77
2021/10/03 10:55:34;;;;;;;5.40;2.80;;;;;;;19.93;43.57;98508.13;10304012;28;20358;-77
2021/10/03 11:01:00;;;;;;;5.13;2.90;;;;;;;20.05;43.24;98511.97;10304207;28;20046;-77
2021/10/03 11:06:02;;;;;;;6.28;3.03;;;;;;;20.17;42.70;98502.50;10300193;28;20051;-77
2021/10/03 11:11:09;;;;;;;6.70;3.13;;;;;;;20.44;42.18;98500.16;10302940;28;20050;-77
2021/10/03 11:16:50;;;;;;;7.35;3.20;;;;;;;20.45;41.40;98476.06;10302604;28;20054;-78
2021/10/03 11:21:56;;;;;;;5.30;3.08;;;;;;;20.64;41.27;98472.00;10256623;28;20057;-78
2021/10/03 11:27:12;;;;;;;6.32;3.03;;;;;;;20.75;40.63;98452.88;10292053;28;20054;-78
2021/10/03 11:32:20;;;;;;;5.13;3.20;;;;;;;20.72;40.33;98450.59;10302409;28;20058;-79
2021/10/03 11:37:36;;;;;;;7.00;3.00;;;;;;;20.71;40.11;98452.44;10301223;28;20047;-79
2021/10/03 11:42:40;;;;;;;4.90;2.97;;;;;;;20.82;40.32;98449.28;10300961;28;20054;-79
2021/10/03 11:47:44;;;;;;;5.22;3.08;;;;;;;20.87;39.51;98460.13;10302478;28;20053;-78
2021/10/03 11:52:46;;;;;;;4.03;2.78;;;;;;;20.95;39.11;98457.31;10317822;28;20054;-78
2021/10/03 11:57:50;;;;;;;5.38;2.90;;;;;;;20.96;38.71;98453.66;10301673;28;20141;-77
2021/10/03 12:02:54;;;;;;;7.43;2.90;;;;;;;21.03;38.86;98438.56;10302812;28;20343;-78
2021/10/03 12:08:03;;;;;;;6.05;3.03;;;;;;;20.99;38.62;98468.38;10302021;28;20046;-79
2021/10/03 12:13:18;;;;;;;4.87;2.83;;;;;;;21.25;38.04;98471.25;10317031;28;20410;-78
2021/10/03 12:18:29;;;;;;;6.10;4.18;;;;;;;21.59;37.63;98475.78;10317506;28;20122;-77
2021/10/03 12:23:45;;;;;;;6.32;3.08;;;;;;;21.99;37.25;98477.59;10301992;28;20046;-77
2021/10/03 12:28:55;;;;;;;6.30;3.05;;;;;;;22.35;36.22;98466.69;10301216;28;20431;-77
2021/10/03 12:33:57;;;;;;;5.85;3.10;;;;;;;22.62;36.41;98476.34;10306773;28;20533;-76
2021/10/03 12:38:59;;;;;;;3.78;2.75;;;;;;;22.65;36.36;98483.97;10321539;28;20065;-76
2021/10/03 12:44:00;;;;;;;7.63;2.80;;;;;;;22.52;36.84;98478.59;10309508;28;20057;-77
2021/10/03 12:49:03;;;;;;;7.80;3.00;;;;;;;22.37;37.40;98509.94;10309005;28;20061;-77
2021/10/03 12:54:05;;;;;;;4.68;3.00;;;;;;;22.19;37.83;98502.47;10309603;28;20054;-76
2021/10/03 12:59:08;;;;;;;5.25;2.97;;;;;;;22.36;37.93;98501.13;10310046;28;20052;-77
2021/10/03 13:04:10;;;;;;;7.05;3.75;;;;;;;22.10;38.41;98505.53;10309635;28;20065;-77
2021/10/03 13:09:12;;;;;;;7.75;3.22;;;;;;;21.79;38.97;98521.94;10309053;28;20132;-77
2021/10/03 13:14:14;;;;;;;5.25;3.05;;;;;;;21.67;39.43;98544.81;10323645;28;20077;-77
2021/10/03 13:19:16;;;;;;;4.55;2.60;;;;;;;21.60;39.80;98543.91;10323426;28;20054;-77
2021/10/03 13:24:17;;;;;;;41.00;4.85;;;;;;;21.31;40.62;98536.97;10308280;28;20505;-77
2021/10/03 13:29:19;;;;;;;16.67;3.30;;;;;;;21.31;40.81;98555.59;10302409;28;20046;-77
2021/10/03 13:34:24;;;;;;;6.90;2.78;;;;;;;21.40;40.65;98573.06;10305445;28;20046;-77
2021/10/03 13:39:26;;;;;;;5.65;2.92;;;;;;;21.33;40.89;98579.34;10306975;28;20503;-77
2021/10/03 13:44:27;;;;;;;6.43;2.67;;;;;;;21.16;41.26;98584.06;10306526;28;20406;-78
2021/10/03 13:49:29;;;;;;;7.60;3.20;;;;;;;21.01;41.75;98607.25;10304041;28;20058;-77
2021/10/03 13:54:31;;;;;;;6.07;3.28;;;;;;;21.06;41.94;98624.28;10305935;28;20072;-77
2021/10/03 13:59:32;;;;;;;6.63;3.17;;;;;;;20.91;42.27;98620.84;10306787;28;20400;-77
2021/10/03 14:04:34;;;;;;;5.57;3.03;;;;;;;20.79;42.96;98670.19;10306201;28;20285;-77
2021/10/03 14:09:36;;;;;;;9.02;2.90;;;;;;;20.57;44.39;98663.16;10305226;28;20069;-76
2021/10/03 14:14:37;;;;;;;5.95;3.00;;;;;;;20.29;45.65;98647.03;10304830;28;20068;-77
2021/10/03 14:19:39;;;;;;;6.57;3.15;;;;;;;20.26;46.51;98651.91;10302551;28;20502;-76
2021/10/03 14:24:41;;;;;;;5.00;2.72;;;;;;;20.34;46.39;98673.03;10304856;28;20056;-76
2021/10/03 14:29:44;;;;;;;4.72;2.53;;;;;;;20.35;47.15;98666.75;10305203;28;20050;-76
2021/10/03 14:34:45;;;;;;;12.70;3.22;;;;;;;20.22;47.82;98687.78;10317461;28;20061;-76
2021/10/03 14:39:47;;;;;;;3.85;2.70;;;;;;;20.12;48.22;98677.44;10304303;28;20051;-76
2021/10/03 14:44:49;;;;;;;3.85;2.70;;;;;;;20.06;48.87;98698.59;10303981;28;20137;-77
2021/10/03 14:49:51;;;;;;;3.80;2.40;;;;;;;19.96;49.04;98712.13;10303965;28;20057;-76
2021/10/03 14:54:53;;;;;;;36.28;27.58;;;;;;;20.07;48.54;98716.97;10310589;28;20050;-75
2021/10/03 14:59:55;;;;;;;4.63;2.63;;;;;;;20.10;48.66;98716.63;10304333;28;20140;-76
2021/10/03 15:05:03;;;;;;;4.20;2.45;;;;;;;19.79;49.29;98733.63;10303898;28;20054;-76
2021/10/03 15:10:08;;;;;;;2.88;1.85;;;;;;;19.79;48.88;98744.25;10302698;28;20145;-76
2021/10/03 15:15:11;;;;;;;4.70;2.17;;;;;;;19.85;48.83;98764.78;10303696;28;20058;-77
2021/10/03 15:20:16;;;;;;;3.10;1.50;;;;;;;19.88;48.51;98761.78;10304286;28;20070;-76
2021/10/03 15:25:22;;;;;;;3.35;1.98;;;;;;;19.62;49.21;98764.78;10296389;28;20384;-77
2021/10/03 15:30:23;;;;;;;2.33;1.50;;;;;;;19.69;48.85;98778.16;10303763;28;20119;-77
2021/10/03 15:35:25;;;;;;;2.08;1.33;;;;;;;19.52;49.35;98795.19;10299391;28;20135;-77
2021/10/03 15:40:28;;;;;;;2.78;1.20;;;;;;;19.39;49.16;98820.44;10302833;28;20061;-77
2021/10/03 15:45:30;;;;;;;2.67;1.17;;;;;;;19.38;49.44;98815.31;10301711;28;20443;-77
2021/10/03 15:50:32;;;;;;;1.58;1.00;;;;;;;19.33;49.41;98834.41;10302584;28;20403;-77
2021/10/03 15:55:39;;;;;;;14.55;10.93;;;;;;;19.18;50.06;98841.44;10302577;28;20056;-77
2021/10/03 16:00:41;;;;;;;1.63;1.23;;;;;;;19.20;50.32;98854.50;10302287;28;20047;-77
2021/10/03 16:05:43;;;;;;;3.03;1.20;;;;;;;19.11;50.61;98864.34;10301124;28;20058;-77
2021/10/03 16:10:44;;;;;;;1.35;1.00;;;;;;;18.98;50.98;98863.16;10309500;28;20056;-77
2021/10/03 16:15:46;;;;;;;1.98;1.30;;;;;;;18.90;51.38;98864.03;10305721;28;20057;-76
2021/10/03 16:20:48;;;;;;;1.30;0.93;;;;;;;18.79;51.86;98887.41;10309255;28;20050;-76
2021/10/03 16:25:50;;;;;;;1.55;1.05;;;;;;;18.78;52.07;98883.94;10308531;28;20176;-76
2021/10/03 16:30:52;;;;;;;1.98;1.20;;;;;;;18.56;52.54;98905.81;10309809;28;20072;-76
2021/10/03 16:35:53;;;;;;;41.10;2.58;;;;;;;18.57;52.72;98915.41;10307078;28;20073;-78
2021/10/03 16:40:55;;;;;;;1.75;1.10;;;;;;;18.53;52.63;98922.03;10309570;28;20058;-76
2021/10/03 16:45:57;;;;;;;1.52;1.08;;;;;;;18.58;52.41;98928.47;10309005;28;20054;-77
2021/10/03 16:50:59;;;;;;;2.00;1.10;;;;;;;18.55;52.67;98935.91;10309015;28;20056;-77
2021/10/03 16:56:00;;;;;;;2.78;1.02;;;;;;;18.53;52.72;98967.03;10308983;28;20541;-75
2021/10/03 17:01:02;;;;;;;1.73;1.02;;;;;;;18.44;52.97;98973.34;10309317;28;20499;-75
2021/10/03 17:06:04;;;;;;;1.00;0.90;;;;;;;18.39;53.10;98976.47;10308114;28;20054;-75
2021/10/03 17:11:06;;;;;;;1.30;1.00;;;;;;;18.33;53.44;98953.31;10305492;28;20070;-75
2021/10/03 17:16:08;;;;;;;4.47;2.05;;;;;;;18.32;53.01;98964.88;10303056;28;20512;-75
2021/10/03 17:21:10;;;;;;;1.88;1.10;;;;;;;18.27;53.04;98979.59;10301548;28;20144;-75
2021/10/03 17:26:13;;;;;;;2.05;0.95;;;;;;;18.27;53.11;98998.13;10305351;28;20050;-75
2021/10/03 17:31:14;;;;;;;1.10;1.00;;;;;;;18.25;53.41;99016.81;10306184;28;20495;-75
2021/10/03 17:36:16;;;;;;;1.15;1.00;;;;;;;18.12;53.92;99023.50;10304395;28;20066;-75
2021/10/03 17:41:18;;;;;;;0.75;0.75;;;;;;;18.11;53.70;99043.03;10306511;28;20053;-66
2021/10/03 17:46:21;;;;;;;3.20;0.88;;;;;;;18.12;53.81;99073.78;10303984;28;20054;-66
2021/10/03 17:51:23;;;;;;;2.03;0.90;;;;;;;18.15;53.41;99078.78;10300903;28;20058;-67
2021/10/03 17:56:25;;;;;;;2.25;1.63;;;;;;;18.07;54.05;99065.50;10305299;28;20344;-66
2021/10/03 18:01:26;;;;;;;1.52;0.70;;;;;;;18.01;53.87;99100.53;10305614;28;20398;-67
2021/10/03 18:06:28;;;;;;;1.10;1.00;;;;;;;17.99;53.85;99110.47;10304814;28;20057;-66
2021/10/03 18:11:30;;;;;;;1.15;0.90;;;;;;;17.94;53.85;99115.38;10320195;28;20051;-67
2021/10/03 18:16:32;;;;;;;0.95;0.73;;;;;;;17.97;53.67;99141.53;10304587;28;20074;-66
2021/10/03 18:21:34;;;;;;;1.38;1.10;;;;;;;17.90;53.54;99149.25;10303817;28;20141;-66
2021/10/03 18:26:35;;;;;;;1.45;0.90;;;;;;;17.95;53.31;99167.31;10304009;28;20205;-66
2021/10/03 18:31:37;;;;;;;3.90;0.90;;;;;;;17.79;53.22;99190.03;10301109;28;20050;-66
2021/10/03 18:36:41;;;;;;;1.17;0.82;;;;;;;17.80;53.41;99197.00;10299600;28;20264;-66
2021/10/03 18:41:43;;;;;;;1.98;1.05;;;;;;;17.74;53.60;99220.59;10317502;28;20244;-66
2021/10/03 18:46:45;;;;;;;2.80;1.10;;;;;;;17.78;54.56;99241.28;10304490;28;20046;-66
2021/10/03 18:51:47;;;;;;;1.92;1.00;;;;;;;17.60;55.89;99298.66;10319185;28;20054;-66
2021/10/03 18:56:48;;;;;;;1.23;0.80;;;;;;;17.13;56.89;99307.72;10300289;28;20641;-66
2021/10/03 19:01:50;;;;;;;1.42;0.98;;;;;;;16.92;57.88;99333.53;10303147;28;20313;-66
2021/10/03 19:06:52;;;;;;;2.55;0.90;;;;;;;16.75;58.57;99339.59;10304184;28;20495;-66
2021/10/03 19:11:53;;;;;;;1.95;0.95;;;;;;;16.52;58.58;99349.66;10316698;28;20062;-66
2021/10/03 19:16:56;;;;;;;1.75;1.00;;;;;;;16.39;59.04;99366.75;10304285;28;20053;-67
2021/10/03 19:21:58;;;;;;;3.42;0.90;;;;;;;16.23;59.02;99367.34;10303734;28;20056;-68
2021/10/03 19:26:59;;;;;;;1.85;0.85;;;;;;;16.13;58.34;99391.09;10303247;28;20513;-65
2021/10/03 19:32:02;;;;;;;0.85;0.70;;;;;;;16.02;58.52;99432.59;10299770;28;20056;-67
2021/10/03 19:37:04;;;;;;;3.00;0.75;;;;;;;15.94;58.80;99425.38;10299783;28;20046;-67
2021/10/03 19:42:06;;;;;;;0.95;0.68;;;;;;;15.88;58.71;99418.00;10295509;28;20644;-67
2021/10/03 19:47:07;;;;;;;1.48;1.00;;;;;;;15.72;58.99;99436.16;10300632;28;20057;-65
2021/10/03 19:52:09;;;;;;;0.70;0.70;;;;;;;15.66;59.57;99459.59;10300420;28;20097;-67
2021/10/03 19:57:11;;;;;;;1.10;0.90;;;;;;;15.61;59.61;99446.00;10299125;28;20403;-67
2021/10/03 20:02:13;;;;;;;1.38;1.00;;;;;;;15.68;58.69;99462.94;10300494;28;20065;-67
2021/10/03 20:07:15;;;;;;;0.80;0.80;;;;;;;15.66;59.16;99464.88;10299409;28;20141;-68
2021/10/03 20:12:17;;;;;;;5.53;0.90;;;;;;;15.59;59.23;99495.38;10298742;28;20050;-67
2021/10/03 20:17:20;;;;;;;1.92;0.90;;;;;;;15.57;58.84;99500.75;10297583;28;20399;-65
2021/10/03 20:22:22;;;;;;;1.65;0.90;;;;;;;15.52;58.51;99525.84;10300732;28;20047;-67
2021/10/03 20:27:26;;;;;;;1.10;0.70;;;;;;;15.45;58.50;99535.25;10301193;28;20054;-67
2021/10/03 20:32:28;;;;;;;0.85;0.55;;;;;;;15.30;57.95;99550.56;10295409;28;20108;-67
2021/10/03 20:37:30;;;;;;;0.70;0.70;;;;;;;15.16;57.63;99549.06;10298174;28;20069;-67
2021/10/03 20:42:33;;;;;;;0.88;0.80;;;;;;;15.22;57.65;99540.69;10299447;28;20046;-67
2021/10/03 20:47:35;;;;;;;0.95;0.70;;;;;;;15.30;57.53;99558.47;10297145;28;20054;-67
2021/10/03 20:52:37;;;;;;;0.68;0.65;;;;;;;15.19;57.73;99583.06;10300104;28;20052;-67
2021/10/03 20:57:39;;;;;;;6.22;4.72;;;;;;;15.29;57.18;99598.94;10305135;28;20161;-67
2021/10/03 21:02:42;;;;;;;0.95;0.80;;;;;;;15.22;57.42;99616.25;10306740;28;20046;-67
2021/10/03 21:07:44;;;;;;;0.95;0.70;;;;;;;15.28;57.27;99606.03;10305702;28;20050;-67
2021/10/03 21:12:46;;;;;;;1.67;0.90;;;;;;;15.30;57.52;99608.53;10306853;28;20068;-67
2021/10/03 21:17:47;;;;;;;1.98;0.85;;;;;;;15.25;57.61;99616.81;10306175;28;20054;-67
2021/10/03 21:22:49;;;;;;;0.50;0.50;;;;;;;15.19;57.01;99608.56;10305590;28;20310;-67
2021/10/03 21:27:51;;;;;;;1.73;0.70;;;;;;;15.06;56.94;99610.59;10306278;28;20072;-67
2021/10/03 21:32:52;;;;;;;1.52;0.68;;;;;;;15.14;56.83;99619.50;10306985;28;20065;-67
2021/10/03 21:37:54;;;;;;;1.08;0.90;;;;;;;15.10;56.31;99604.91;10307060;28;20509;-67
2021/10/03 21:42:56;;;;;;;0.50;0.50;;;;;;;15.13;56.14;99617.00;10306466;28;20471;-67
2021/10/03 21:47:58;;;;;;;0.75;0.63;;;;;;;15.10;55.91;99627.81;10303326;28;20164;-66
2021/10/03 21:53:01;;;;;;;0.98;0.63;;;;;;;14.98;55.70;99634.09;10302610;28;20374;-67
2021/10/03 21:58:04;;;;;;;1.13;0.60;;;;;;;14.92;55.71;99639.84;10299517;28;20057;-67
2021/10/03 22:03:06;;;;;;;0.55;0.50;;;;;;;14.86;55.64;99629.81;10319559;28;20398;-67
2021/10/03 22:08:07;;;;;;;1.33;0.63;;;;;;;14.85;55.09;99630.78;10304562;28;20090;-67
2021/10/03 22:13:09;;;;;;;0.38;0.38;;;;;;;14.69;54.55;99609.31;10305251;28;20064;-67
2021/10/03 22:18:11;;;;;;;0.95;0.60;;;;;;;14.63;54.62;99626.44;10304798;28;20410;-67
2021/10/03 22:23:13;;;;;;;0.63;0.63;;;;;;;14.55;54.51;99644.66;10303186;28;20157;-67
2021/10/03 22:28:18;;;;;;;2.28;0.60;;;;;;;14.51;54.86;99653.75;10304828;28;20054;-67
2021/10/03 22:33:21;;;;;;;1.17;0.57;;;;;;;14.54;54.46;99669.28;10304441;28;20054;-66
2021/10/03 22:38:23;;;;;;;1.05;0.60;;;;;;;14.47;54.67;99671.53;10304577;28;20076;-66
2021/10/03 22:43:25;;;;;;;0.47;0.47;;;;;;;14.42;55.18;99680.75;10305091;28;20050;-66
2021/10/03 22:48:27;;;;;;;0.85;0.40;;;;;;;14.35;55.24;99675.13;10302861;28;20050;-66
2021/10/03 22:53:29;;;;;;;0.60;0.50;;;;;;;14.35;55.50;99690.09;10302279;28;20089;-66
2021/10/03 22:58:31;;;;;;;0.55;0.32;;;;;;;14.34;55.55;99688.41;10304247;28;20162;-66
2021/10/03 23:03:33;;;;;;;1.38;0.60;;;;;;;14.28;55.65;99699.41;10301687;28;20046;-66
2021/10/03 23:08:34;;;;;;;1.15;0.60;;;;;;;14.25;55.89;99699.63;10303819;28;20054;-67
2021/10/03 23:13:36;;;;;;;0.50;0.50;;;;;;;14.27;55.57;99703.84;10302755;28;20072;-66
2021/10/03 23:18:38;;;;;;;0.95;0.60;;;;;;;14.33;55.64;99692.81;10300989;28;20061;-66
2021/10/03 23:23:39;;;;;;;1.08;0.57;;;;;;;14.42;55.47;99681.59;10302669;28;20057;-67
2021/10/03 23:28:42;;;;;;;0.90;0.70;;;;;;;14.42;55.58;99699.16;10303907;28;20046;-67